Time;durP1;ratioP1;P1;durP2;ratioP2;P2;SDS_P1;SDS_P2;PMS_P1;PMS_P2;Temp;Humidity;BMP_temperature;BMP_pressure;BME280_temperature;BME280_humidity;BME280_pressure;Samples;Min_cycle;Max_cycle;Signal;HPM_P1;HPM_P2
2024/01/13 00:01:43;;;;;;;;;;;-3.00;99.90;;;;;;4935037;29;20405;-89
2024/01/13 00:04:10;;;;;;;;;;;-3.00;99.90;;;;;;4932084;29;19915;-89
2024/01/13 00:06:36;;;;;;;;;;;-3.00;99.90;;;;;;4918517;29;19937;-90
2024/01/13 00:09:01;;;;;;;;;;;-3.00;99.90;;;;;;4937429;29;19915;-89
2024/01/13 00:11:27;;;;;;;;;;;-3.00;99.90;;;;;;4922653;29;20366;-89
2024/01/13 00:13:52;;;;;;;;;;;-3.00;99.90;;;;;;4937342;29;19918;-89
2024/01/13 00:19:24;;;;;;;;;;;-2.90;99.90;;;;;;4938061;29;19915;-89
2024/01/13 00:21:50;;;;;;;;;;;-2.90;99.90;;;;;;4938318;29;19922;-90
2024/01/13 00:24:16;;;;;;;;;;;-2.90;99.90;;;;;;4911414;29;19915;-89
2024/01/13 00:26:41;;;;;;;;;;;-3.00;99.90;;;;;;4922164;29;19915;-89
2024/01/13 00:29:08;;;;;;;;;;;-3.00;99.90;;;;;;4907214;29;20379;-89
2024/01/13 00:31:34;;;;;;;;;;;-3.10;99.90;;;;;;4938314;29;19922;-89
2024/01/13 00:33:59;;;;;;;;;;;-3.10;99.90;;;;;;4928497;29;19919;-89
2024/01/13 00:36:34;;;;;;;;;;;-3.10;99.90;;;;;;4937950;29;19918;-89
2024/01/13 00:39:00;;;;;;;;;;;-3.10;99.90;;;;;;4916755;29;19922;-89
2024/01/13 00:41:26;;;;;;;;;;;-3.10;99.90;;;;;;4937626;29;19915;-89
2024/01/13 00:43:52;;;;;;;;;;;-3.10;99.90;;;;;;4905236;29;19915;-89
2024/01/13 00:46:17;;;;;;;;;;;-3.00;99.90;;;;;;4922205;29;19970;-89
2024/01/13 00:48:43;;;;;;;;;;;-3.10;99.90;;;;;;4938975;29;19915;-90
2024/01/13 00:51:12;;;;;;;;;;;-3.00;99.90;;;;;;4910796;29;19922;-89
2024/01/13 00:53:38;;;;;;;;;;;-3.00;99.90;;;;;;4937767;29;19926;-90
2024/01/13 00:56:04;;;;;;;;;;;-3.00;99.90;;;;;;4906131;29;19919;-90
2024/01/13 00:58:29;;;;;;;;;;;-3.00;99.90;;;;;;4937379;29;20367;-89
2024/01/13 01:00:59;;;;;;;;;;;-3.10;99.90;;;;;;4906055;29;19922;-89
2024/01/13 01:03:25;;;;;;;;;;;-3.00;99.90;;;;;;4940048;29;20446;-89
2024/01/13 01:05:51;;;;;;;;;;;-3.00;99.90;;;;;;4937376;29;20006;-89
2024/01/13 01:08:31;;;;;;;;;;;-3.10;99.90;;;;;;4937357;29;19965;-89
2024/01/13 01:10:57;;;;;;;;;;;-3.00;99.90;;;;;;4932819;29;19920;-89
2024/01/13 01:13:22;;;;;;;;;;;-3.00;99.90;;;;;;4937308;29;19914;-90
2024/01/13 01:15:48;;;;;;;;;;;-3.00;99.90;;;;;;4937334;29;19919;-89
2024/01/13 01:18:13;;;;;;;;;;;-3.00;99.90;;;;;;4937289;29;19922;-89
2024/01/13 01:20:39;;;;;;;;;;;-2.90;99.90;;;;;;4901803;29;19921;-89
2024/01/13 01:23:05;;;;;;;;;;;-3.00;99.90;;;;;;4936587;29;19914;-89
2024/01/13 01:25:30;;;;;;;;;;;-3.10;99.90;;;;;;4944776;29;19962;-90
2024/01/13 01:27:56;;;;;;;;;;;-3.10;99.90;;;;;;4937542;29;20010;-89
2024/01/13 01:30:27;;;;;;;;;;;-3.20;99.90;;;;;;4945013;29;19915;-89
2024/01/13 01:32:53;;;;;;;;;;;-3.10;99.90;;;;;;4930994;29;20355;-89
2024/01/13 01:35:19;;;;;;;;;;;-3.10;99.90;;;;;;4928787;29;19965;-89
2024/01/13 01:37:44;;;;;;;;;;;-3.10;99.90;;;;;;4933944;29;19919;-89
2024/01/13 01:40:12;;;;;;;;;;;-3.10;99.90;;;;;;4905525;29;19915;-89
2024/01/13 01:42:38;;;;;;;;;;;-3.10;99.90;;;;;;4937088;29;19915;-89
2024/01/13 01:45:04;;;;;;;;;;;-3.10;99.90;;;;;;4941460;29;19922;-89
2024/01/13 01:47:31;;;;;;;;;;;-3.20;99.90;;;;;;4920941;29;19921;-89
2024/01/13 01:49:57;;;;;;;;;;;-3.20;99.90;;;;;;4905266;29;20279;-89
2024/01/13 01:52:22;;;;;;;;;;;-3.20;99.90;;;;;;4936626;29;19921;-90
2024/01/13 01:54:48;;;;;;;;;;;-3.20;99.90;;;;;;4904982;29;19921;-89
2024/01/13 01:57:15;;;;;;;;;;;-3.10;99.90;;;;;;4936341;29;20704;-90
2024/01/13 01:59:40;;;;;;;;;;;-3.10;99.90;;;;;;4920866;29;19915;-90
2024/01/13 02:02:07;;;;;;;;;;;-3.10;99.90;;;;;;4940790;29;19917;-89
2024/01/13 02:04:33;;;;;;;;;;;-3.10;99.90;;;;;;4904457;29;19915;-89
2024/01/13 02:06:59;;;;;;;;;;;-3.10;99.90;;;;;;4936112;29;20264;-89
2024/01/13 02:09:24;;;;;;;;;;;-3.10;99.90;;;;;;4905603;29;20331;-89
2024/01/13 02:11:50;;;;;;;;;;;-3.00;99.90;;;;;;4905011;29;19915;-89
2024/01/13 02:14:16;;;;;;;;;;;-3.00;99.90;;;;;;4904487;29;20283;-90
2024/01/13 02:16:41;;;;;;;;;;;-2.90;99.90;;;;;;4936207;29;19919;-90
2024/01/13 02:19:07;;;;;;;;;;;-3.00;99.90;;;;;;4904619;29;19925;-89
2024/01/13 02:21:36;;;;;;;;;;;-3.00;99.90;;;;;;4935828;29;20302;-89
2024/01/13 02:24:01;;;;;;;;;;;-3.00;99.90;;;;;;4936205;29;19914;-90
2024/01/13 02:26:28;;;;;;;;;;;-3.00;99.90;;;;;;4937332;29;19923;-89
2024/01/13 02:28:53;;;;;;;;;;;-3.00;99.90;;;;;;4936159;29;19976;-89
2024/01/13 02:31:19;;;;;;;;;;;-2.90;99.90;;;;;;4935576;29;19911;-89
2024/01/13 02:33:44;;;;;;;;;;;-2.90;99.90;;;;;;4903594;29;19941;-89
2024/01/13 02:36:10;;;;;;;;;;;-3.00;99.90;;;;;;4935770;29;20017;-90
2024/01/13 02:38:35;;;;;;;;;;;-3.00;99.90;;;;;;4904542;29;20323;-89
2024/01/13 02:41:01;;;;;;;;;;;-3.10;99.90;;;;;;4935628;29;20010;-89
2024/01/13 02:43:27;;;;;;;;;;;-3.00;99.90;;;;;;4904254;29;20310;-89
2024/01/13 02:45:52;;;;;;;;;;;-3.00;99.90;;;;;;4937933;29;19914;-89
2024/01/13 02:48:18;;;;;;;;;;;-3.00;99.90;;;;;;4934592;29;19995;-89
2024/01/13 02:50:50;;;;;;;;;;;-3.00;99.90;;;;;;4935427;29;19958;-90
2024/01/13 02:53:16;;;;;;;;;;;-3.10;99.90;;;;;;4935268;29;19915;-89
2024/01/13 02:55:41;;;;;;;;;;;-3.10;99.90;;;;;;4935632;29;19927;-89
2024/01/13 02:58:07;;;;;;;;;;;-3.10;99.90;;;;;;4940440;29;20516;-90
2024/01/13 03:00:32;;;;;;;;;;;-3.20;99.90;;;;;;4935973;29;20371;-89
2024/01/13 03:02:58;;;;;;;;;;;-3.20;99.90;;;;;;4935949;29;19922;-90
2024/01/13 03:05:24;;;;;;;;;;;-3.10;99.90;;;;;;4936798;29;19997;-89
2024/01/13 03:07:49;;;;;;;;;;;-3.10;99.90;;;;;;4903557;29;19918;-89
2024/01/13 03:10:15;;;;;;;;;;;-3.10;99.90;;;;;;4935023;29;19983;-89
2024/01/13 03:12:40;;;;;;;;;;;-3.10;99.90;;;;;;4902294;29;19922;-89
2024/01/13 03:15:07;;;;;;;;;;;-3.10;99.90;;;;;;4904833;29;19915;-89
2024/01/13 03:17:32;;;;;;;;;;;-3.10;99.90;;;;;;4934410;29;20001;-89
2024/01/13 03:19:58;;;;;;;;;;;-3.10;99.90;;;;;;4935403;29;20347;-89
2024/01/13 03:22:24;;;;;;;;;;;-3.10;99.90;;;;;;4934550;29;20012;-89
2024/01/13 03:24:49;;;;;;;;;;;-3.00;99.90;;;;;;4903305;29;19926;-89
2024/01/13 03:27:15;;;;;;;;;;;-3.00;99.90;;;;;;4934742;29;20385;-90
2024/01/13 03:29:40;;;;;;;;;;;-3.00;99.90;;;;;;4934485;29;20021;-89
2024/01/13 03:32:06;;;;;;;;;;;-3.00;99.90;;;;;;4934486;29;19915;-89
2024/01/13 03:34:32;;;;;;;;;;;-3.10;99.90;;;;;;4931346;29;19953;-89
2024/01/13 03:36:57;;;;;;;;;;;-3.10;99.90;;;;;;4934290;29;19918;-89
2024/01/13 03:40:00;;;;;;;;;;;-3.10;99.90;;;;;;4936684;29;19922;-89
2024/01/13 03:42:26;;;;;;;;;;;-3.20;99.90;;;;;;4913339;29;19922;-89
2024/01/13 03:44:51;;;;;;;;;;;-3.20;99.90;;;;;;4911324;29;20289;-90
2024/01/13 03:47:17;;;;;;;;;;;-3.20;99.90;;;;;;4942413;29;20378;-89
2024/01/13 03:49:43;;;;;;;;;;;-3.10;99.90;;;;;;4937968;29;19950;-89
2024/01/13 03:52:09;;;;;;;;;;;-3.10;99.90;;;;;;4922329;29;19919;-89
2024/01/13 03:54:34;;;;;;;;;;;-3.10;99.90;;;;;;4911757;29;19915;-90
2024/01/13 03:57:00;;;;;;;;;;;-3.10;99.90;;;;;;4922378;29;20397;-89
2024/01/13 03:59:26;;;;;;;;;;;-3.10;99.90;;;;;;4910460;29;20290;-89
2024/01/13 04:01:52;;;;;;;;;;;-3.10;99.90;;;;;;4940573;29;19915;-89
2024/01/13 04:04:17;;;;;;;;;;;-3.10;99.90;;;;;;4927213;29;19920;-89
2024/01/13 04:06:43;;;;;;;;;;;-3.10;99.90;;;;;;4937656;29;20280;-89
2024/01/13 04:09:08;;;;;;;;;;;-3.10;99.90;;;;;;4932327;28;19923;-89
2024/01/13 04:11:34;;;;;;;;;;;-3.10;99.90;;;;;;4909976;29;19915;-89
2024/01/13 04:14:00;;;;;;;;;;;-3.10;99.90;;;;;;4912485;29;20006;-89
2024/01/13 04:16:25;;;;;;;;;;;-3.10;99.90;;;;;;4910301;29;19957;-89
2024/01/13 04:18:51;;;;;;;;;;;-3.10;99.90;;;;;;4931524;29;19915;-89
2024/01/13 04:21:17;;;;;;;;;;;-3.10;99.90;;;;;;4937407;29;19925;-89
2024/01/13 04:23:45;;;;;;;;;;;-3.10;99.90;;;;;;4908242;29;19915;-89
2024/01/13 04:26:11;;;;;;;;;;;-3.20;99.90;;;;;;4936480;29;19915;-89
2024/01/13 04:31:42;;;;;;;;;;;-3.30;99.90;;;;;;4914877;29;19915;-89
2024/01/13 04:34:07;;;;;;;;;;;-3.20;99.90;;;;;;4905027;29;19985;-89
2024/01/13 04:36:33;;;;;;;;;;;-3.20;99.90;;;;;;4936162;29;19957;-89
2024/01/13 04:38:59;;;;;;;;;;;-3.20;99.90;;;;;;4935099;29;19970;-89
2024/01/13 04:41:24;;;;;;;;;;;-3.20;99.90;;;;;;4944181;29;19946;-89
2024/01/13 04:43:50;;;;;;;;;;;-3.20;99.90;;;;;;4938313;29;19922;-90
2024/01/13 04:46:16;;;;;;;;;;;-3.10;99.90;;;;;;4906855;29;19923;-89
2024/01/13 04:48:41;;;;;;;;;;;-3.20;99.90;;;;;;4938410;29;20327;-89
2024/01/13 04:51:07;;;;;;;;;;;-3.20;99.90;;;;;;4937901;29;19926;-89
2024/01/13 04:53:32;;;;;;;;;;;-3.20;99.90;;;;;;4939068;29;19919;-90
2024/01/13 04:55:58;;;;;;;;;;;-3.20;99.90;;;;;;4925612;29;19915;-89
2024/01/13 04:58:24;;;;;;;;;;;-3.20;99.90;;;;;;4938094;29;20359;-89
2024/01/13 05:00:49;;;;;;;;;;;-3.20;99.90;;;;;;4906492;29;19919;-90
2024/01/13 05:03:15;;;;;;;;;;;-3.10;99.90;;;;;;4945804;29;19921;-90
2024/01/13 05:05:40;;;;;;;;;;;-3.10;99.90;;;;;;4923289;29;19950;-89
2024/01/13 05:08:06;;;;;;;;;;;-3.20;99.90;;;;;;4929421;29;19922;-89
2024/01/13 05:10:31;;;;;;;;;;;-3.20;99.90;;;;;;4929711;29;20354;-89
2024/01/13 05:12:57;;;;;;;;;;;-3.20;99.90;;;;;;4905845;29;20286;-90
2024/01/13 05:15:22;;;;;;;;;;;-3.20;99.90;;;;;;4937597;29;19915;-89
2024/01/13 05:17:48;;;;;;;;;;;-3.20;99.90;;;;;;4937725;29;19922;-90
2024/01/13 05:20:14;;;;;;;;;;;-3.30;99.90;;;;;;4937656;29;20275;-90
2024/01/13 05:22:39;;;;;;;;;;;-3.30;99.90;;;;;;4944791;29;20010;-90
2024/01/13 05:25:05;;;;;;;;;;;-3.20;99.90;;;;;;4937904;29;19911;-89
2024/01/13 05:27:31;;;;;;;;;;;-3.20;99.90;;;;;;4937774;29;20286;-90
2024/01/13 05:29:57;;;;;;;;;;;-3.20;99.90;;;;;;4938024;29;19926;-89
2024/01/13 05:32:22;;;;;;;;;;;-3.20;99.90;;;;;;4937240;29;19922;-90
2024/01/13 05:34:48;;;;;;;;;;;-3.30;99.90;;;;;;4936979;29;19933;-89
2024/01/13 05:37:13;;;;;;;;;;;-3.20;99.90;;;;;;4937485;29;19929;-90
2024/01/13 05:39:42;;;;;;;;;;;-3.20;99.90;;;;;;4937603;29;19922;-89
2024/01/13 05:42:08;;;;;;;;;;;-3.20;99.90;;;;;;4905646;29;19914;-89
2024/01/13 05:44:34;;;;;;;;;;;-3.20;99.90;;;;;;4937657;29;20398;-90
2024/01/13 05:46:59;;;;;;;;;;;-3.20;99.90;;;;;;4905558;29;19954;-89
2024/01/13 05:49:25;;;;;;;;;;;-3.20;99.90;;;;;;4937182;29;19915;-89
2024/01/13 05:51:51;;;;;;;;;;;-3.20;99.90;;;;;;4936742;29;19922;-90
2024/01/13 05:54:16;;;;;;;;;;;-3.20;99.90;;;;;;4937537;29;19998;-89
2024/01/13 05:56:42;;;;;;;;;;;-3.20;99.90;;;;;;4936500;29;19961;-89
2024/01/13 05:59:07;;;;;;;;;;;-3.30;99.90;;;;;;4936827;29;19923;-89
2024/01/13 06:01:33;;;;;;;;;;;-3.30;99.90;;;;;;4938822;29;19915;-90
2024/01/13 06:03:59;;;;;;;;;;;-3.20;99.90;;;;;;4936341;29;20255;-89
2024/01/13 06:06:24;;;;;;;;;;;-3.30;99.90;;;;;;4937650;29;20049;-90
2024/01/13 06:08:50;;;;;;;;;;;-3.30;99.90;;;;;;4936945;29;19919;-89
2024/01/13 06:11:15;;;;;;;;;;;-3.40;99.90;;;;;;4937157;29;19919;-90
2024/01/13 06:13:41;;;;;;;;;;;-3.40;99.90;;;;;;4937029;29;19978;-89
2024/01/13 06:16:08;;;;;;;;;;;-3.30;99.90;;;;;;4906917;29;19931;-89
2024/01/13 06:18:33;;;;;;;;;;;-3.20;99.90;;;;;;4935413;28;19974;-89
2024/01/13 06:21:00;;;;;;;;;;;-3.20;99.90;;;;;;4936214;29;20002;-89
2024/01/13 06:23:26;;;;;;;;;;;-3.20;99.90;;;;;;4937205;29;19918;-89
2024/01/13 06:25:51;;;;;;;;;;;-3.20;99.90;;;;;;4940666;29;20260;-89
2024/01/13 06:28:17;;;;;;;;;;;-3.10;99.90;;;;;;4920635;29;19919;-89
2024/01/13 06:30:43;;;;;;;;;;;-3.10;99.90;;;;;;4936779;29;19919;-89
2024/01/13 06:33:09;;;;;;;;;;;-3.10;99.90;;;;;;4936160;29;20118;-89
2024/01/13 06:35:50;;;;;;;;;;;-3.10;99.90;;;;;;4936127;29;19921;-89
2024/01/13 06:38:15;;;;;;;;;;;-3.20;99.90;;;;;;4947515;29;20278;-89
2024/01/13 06:40:41;;;;;;;;;;;-3.20;99.90;;;;;;4940597;29;19915;-89
2024/01/13 06:43:10;;;;;;;;;;;-3.20;99.90;;;;;;4925051;29;20441;-89
2024/01/13 06:45:36;;;;;;;;;;;-3.20;99.90;;;;;;4936140;29;19949;-89
2024/01/13 06:48:02;;;;;;;;;;;-3.20;99.90;;;;;;4904554;29;20398;-90
2024/01/13 06:50:27;;;;;;;;;;;-3.30;99.90;;;;;;4936337;29;20006;-89
2024/01/13 06:52:53;;;;;;;;;;;-3.30;99.90;;;;;;4911021;29;19954;-90
2024/01/13 06:55:23;;;;;;;;;;;-3.30;99.90;;;;;;4936065;29;19918;-89
2024/01/13 06:58:25;;;;;;;;;;;-3.30;99.90;;;;;;4912388;29;19981;-89
2024/01/13 07:00:51;;;;;;;;;;;-3.30;99.90;;;;;;4930588;29;19915;-89
2024/01/13 07:03:16;;;;;;;;;;;-3.30;99.90;;;;;;4906979;29;19915;-89
2024/01/13 07:05:42;;;;;;;;;;;-3.30;99.90;;;;;;4931798;29;19915;-88
2024/01/13 07:08:08;;;;;;;;;;;-3.20;99.90;;;;;;4913355;29;19986;-89
2024/01/13 07:10:34;;;;;;;;;;;-3.20;99.90;;;;;;4947305;29;19915;-89
2024/01/13 07:13:00;;;;;;;;;;;-3.10;99.90;;;;;;4935267;29;19922;-89
2024/01/13 07:15:25;;;;;;;;;;;-3.10;99.90;;;;;;4931386;29;19914;-90
2024/01/13 07:17:57;;;;;;;;;;;-3.20;99.90;;;;;;4933894;29;19915;-89
2024/01/13 07:20:26;;;;;;;;;;;-3.10;99.90;;;;;;4938067;29;19926;-86
2024/01/13 07:22:52;;;;;;;;;;;-3.10;99.90;;;;;;4938098;29;19922;-85
2024/01/13 07:25:18;;;;;;;;;;;-3.10;99.90;;;;;;4920616;29;19915;-85
2024/01/13 07:31:12;;;;;;;;;;;-3.20;99.90;;;;;;4936685;29;19978;-85
2024/01/13 07:33:38;;;;;;;;;;;-3.20;99.90;;;;;;4942196;29;19926;-85
2024/01/13 07:36:04;;;;;;;;;;;-3.20;99.90;;;;;;4943342;29;20330;-85
2024/01/13 07:38:29;;;;;;;;;;;-3.10;99.90;;;;;;4941529;29;20325;-85
2024/01/13 07:40:55;;;;;;;;;;;-3.20;99.90;;;;;;4912556;29;20623;-86
2024/01/13 07:43:21;;;;;;;;;;;-3.20;99.90;;;;;;4938301;29;20548;-86
2024/01/13 07:45:46;;;;;;;;;;;-3.10;99.90;;;;;;4949580;29;20005;-85
2024/01/13 07:48:12;;;;;;;;;;;-3.20;99.90;;;;;;4936177;29;20371;-85
2024/01/13 07:51:05;;;;;;;;;;;-3.20;99.90;;;;;;4946612;29;19926;-85
2024/01/13 07:53:31;;;;;;;;;;;-3.20;99.90;;;;;;4911942;29;19926;-85
2024/01/13 07:55:58;;;;;;;;;;;-3.20;99.90;;;;;;4933212;29;19973;-85
2024/01/13 07:58:24;;;;;;;;;;;-3.20;99.90;;;;;;4934351;29;20379;-85
2024/01/13 08:00:50;;;;;;;;;;;-3.20;99.90;;;;;;4929020;29;19958;-85
2024/01/13 08:03:16;;;;;;;;;;;-3.20;99.90;;;;;;4913440;29;19919;-85
2024/01/13 08:05:41;;;;;;;;;;;-3.10;99.90;;;;;;4931906;29;19957;-85
2024/01/13 08:08:07;;;;;;;;;;;-3.20;99.90;;;;;;4934157;29;20006;-86
2024/01/13 08:10:36;;;;;;;;;;;-3.20;99.90;;;;;;4900999;29;19915;-85
2024/01/13 08:13:02;;;;;;;;;;;-3.20;99.90;;;;;;4903752;29;20528;-85
2024/01/13 08:15:28;;;;;;;;;;;-3.10;99.90;;;;;;4933007;29;19919;-85
2024/01/13 08:17:54;;;;;;;;;;;-3.00;99.90;;;;;;4940068;29;19919;-85
2024/01/13 08:20:20;;;;;;;;;;;-3.00;99.90;;;;;;4919969;29;19918;-86
2024/01/13 08:22:49;;;;;;;;;;;-3.00;99.90;;;;;;4936908;29;19919;-85
2024/01/13 08:25:14;;;;;;;;;;;-3.00;99.90;;;;;;4927632;29;19969;-85
2024/01/13 08:27:40;;;;;;;;;;;-3.00;99.90;;;;;;4924448;29;20418;-85
2024/01/13 08:30:06;;;;;;;;;;;-3.00;99.90;;;;;;4926699;29;19919;-85
2024/01/13 08:32:32;;;;;;;;;;;-3.00;99.90;;;;;;4945491;29;19926;-86
2024/01/13 08:34:58;;;;;;;;;;;-2.90;99.90;;;;;;4927549;29;19930;-86
2024/01/13 08:37:24;;;;;;;;;;;-3.00;99.90;;;;;;4942867;29;20013;-85
2024/01/13 08:39:49;;;;;;;;;;;-3.00;99.90;;;;;;4937101;29;19954;-86
2024/01/13 08:42:15;;;;;;;;;;;-3.10;99.90;;;;;;4913269;29;19954;-86
2024/01/13 08:44:40;;;;;;;;;;;-3.20;99.90;;;;;;4945303;29;19915;-85
2024/01/13 08:47:06;;;;;;;;;;;-3.20;99.90;;;;;;4935970;29;20271;-85
2024/01/13 08:49:32;;;;;;;;;;;-3.20;99.90;;;;;;4934504;29;19922;-85
2024/01/13 08:51:57;;;;;;;;;;;-3.10;99.90;;;;;;4912784;29;20298;-85
2024/01/13 08:54:23;;;;;;;;;;;-3.10;99.90;;;;;;4903169;29;20646;-85
2024/01/13 08:56:51;;;;;;;;;;;-3.00;99.90;;;;;;4918722;29;19927;-86
2024/01/13 08:59:17;;;;;;;;;;;-3.00;99.90;;;;;;4917435;29;19922;-85
2024/01/13 09:01:43;;;;;;;;;;;-3.00;99.90;;;;;;4926203;29;19923;-86
2024/01/13 09:04:09;;;;;;;;;;;-2.90;99.90;;;;;;4918239;29;20003;-85
2024/01/13 09:06:34;;;;;;;;;;;-2.90;99.90;;;;;;4929962;29;20389;-86
2024/01/13 09:09:00;;;;;;;;;;;-3.00;99.90;;;;;;4918750;29;19910;-85
2024/01/13 09:11:26;;;;;;;;;;;-3.00;99.90;;;;;;4932134;29;19927;-85
2024/01/13 09:13:52;;;;;;;;;;;-3.00;99.90;;;;;;4918113;29;20635;-85
2024/01/13 09:16:17;;;;;;;;;;;-2.90;99.90;;;;;;4932957;29;19923;-85
2024/01/13 09:18:43;;;;;;;;;;;-2.80;99.90;;;;;;4912697;29;20411;-85
2024/01/13 09:21:09;;;;;;;;;;;-2.80;99.90;;;;;;4944975;29;19954;-86
2024/01/13 09:23:36;;;;;;;;;;;-2.70;99.90;;;;;;4922719;29;19923;-85
2024/01/13 09:26:03;;;;;;;;;;;-2.70;99.90;;;;;;4910816;29;19918;-85
2024/01/13 09:28:29;;;;;;;;;;;-2.70;99.90;;;;;;4942116;29;19918;-85
2024/01/13 09:30:54;;;;;;;;;;;-2.70;99.90;;;;;;4932215;29;19997;-85
2024/01/13 09:33:20;;;;;;;;;;;-2.50;99.90;;;;;;4935200;29;20005;-85
2024/01/13 09:35:45;;;;;;;;;;;-2.50;99.90;;;;;;4935334;29;19922;-85
2024/01/13 09:38:27;;;;;;;;;;;-2.50;99.90;;;;;;4919207;29;20344;-86
2024/01/13 09:40:53;;;;;;;;;;;-2.60;99.90;;;;;;4909151;29;19958;-85
2024/01/13 09:43:31;;;;;;;;;;;-2.60;99.90;;;;;;4934374;29;20346;-85
2024/01/13 09:45:56;;;;;;;;;;;-2.60;99.90;;;;;;4919474;28;19914;-85
2024/01/13 09:48:22;;;;;;;;;;;-2.60;99.90;;;;;;4913721;29;19915;-85
2024/01/13 09:50:54;;;;;;;;;;;-2.60;99.90;;;;;;4922420;29;19957;-85
2024/01/13 09:53:27;;;;;;;;;;;-2.60;99.90;;;;;;4925836;29;19930;-85
2024/01/13 09:55:55;;;;;;;;;;;-2.60;99.90;;;;;;4934119;29;20389;-85
2024/01/13 09:58:20;;;;;;;;;;;-2.60;99.90;;;;;;4905528;29;19919;-85
2024/01/13 10:00:46;;;;;;;;;;;-2.60;99.90;;;;;;4917882;29;19922;-85
2024/01/13 10:03:30;;;;;;;;;;;-2.70;99.90;;;;;;4902424;29;19966;-85
2024/01/13 10:05:56;;;;;;;;;;;-2.70;99.90;;;;;;4912465;29;19919;-85
2024/01/13 10:08:31;;;;;;;;;;;-2.60;99.90;;;;;;4933374;29;19915;-85
2024/01/13 10:10:58;;;;;;;;;;;-2.60;99.90;;;;;;4906588;29;19922;-85
2024/01/13 10:13:25;;;;;;;;;;;-2.60;99.90;;;;;;4909479;29;19918;-85
2024/01/13 10:15:54;;;;;;;;;;;-2.60;99.90;;;;;;4936240;29;19949;-85
2024/01/13 10:18:21;;;;;;;;;;;-2.40;99.90;;;;;;4941378;29;19915;-85
2024/01/13 10:20:46;;;;;;;;;;;-2.30;99.90;;;;;;4939561;29;19918;-85
2024/01/13 10:23:12;;;;;;;;;;;-2.40;99.90;;;;;;4901622;29;19989;-84
2024/01/13 10:25:38;;;;;;;;;;;-2.50;99.90;;;;;;4905074;29;19983;-85
2024/01/13 10:31:32;;;;;;;;;;;-2.60;99.90;;;;;;4928662;28;19977;-85
2024/01/13 10:33:58;;;;;;;;;;;-2.70;99.90;;;;;;4937735;29;20010;-85
2024/01/13 10:36:24;;;;;;;;;;;-2.60;99.90;;;;;;4936128;29;19919;-85
2024/01/13 10:38:50;;;;;;;;;;;-2.50;99.90;;;;;;4930295;29;19964;-85
2024/01/13 10:41:18;;;;;;;;;;;-2.40;99.90;;;;;;4930081;29;19954;-85
2024/01/13 10:43:43;;;;;;;;;;;-2.30;99.90;;;;;;4928521;29;20306;-85
2024/01/13 10:46:13;;;;;;;;;;;-2.40;99.90;;;;;;4916510;29;19919;-85
2024/01/13 10:48:46;;;;;;;;;;;-2.50;99.90;;;;;;4920215;29;20001;-85
2024/01/13 10:51:22;;;;;;;;;;;-2.50;99.90;;;;;;4916517;29;19914;-85
2024/01/13 10:54:10;;;;;;;;;;;-2.50;99.90;;;;;;4927936;29;20340;-84
2024/01/13 10:56:36;;;;;;;;;;;-2.50;99.90;;;;;;4915443;29;19938;-84
2024/01/13 10:59:02;;;;;;;;;;;-2.40;99.90;;;;;;4932380;29;19930;-84
2024/01/13 11:01:28;;;;;;;;;;;-2.50;99.90;;;;;;4940393;29;19919;-85
2024/01/13 11:03:54;;;;;;;;;;;-2.60;99.90;;;;;;4931908;29;19926;-84
2024/01/13 11:06:23;;;;;;;;;;;-2.70;99.90;;;;;;4935732;29;19966;-85
2024/01/13 11:08:52;;;;;;;;;;;-2.70;99.90;;;;;;4926119;29;19925;-84
2024/01/13 11:11:19;;;;;;;;;;;-2.80;99.90;;;;;;4915672;29;19967;-85
2024/01/13 11:13:56;;;;;;;;;;;-2.80;99.90;;;;;;4922104;29;19911;-84
2024/01/13 11:16:24;;;;;;;;;;;-2.80;99.90;;;;;;4930197;29;19922;-84
2024/01/13 11:18:54;;;;;;;;;;;-2.70;99.90;;;;;;4926296;29;19926;-84
2024/01/13 11:21:27;;;;;;;;;;;-2.70;99.90;;;;;;4926803;29;19919;-85
2024/01/13 11:23:52;;;;;;;;;;;-2.60;99.90;;;;;;4929691;29;19930;-85
2024/01/13 11:26:22;;;;;;;;;;;-2.60;99.90;;;;;;4910252;29;19911;-84
2024/01/13 11:28:48;;;;;;;;;;;-2.70;99.90;;;;;;4909789;29;20029;-85
2024/01/13 11:31:33;;;;;;;;;;;-2.60;99.90;;;;;;4924253;29;19919;-84
2024/01/13 11:33:59;;;;;;;;;;;-2.70;99.90;;;;;;4894972;29;19927;-85
2024/01/13 11:36:28;;;;;;;;;;;-2.70;99.90;;;;;;4905785;29;19918;-84
2024/01/13 11:38:56;;;;;;;;;;;-2.70;99.90;;;;;;4933014;29;19978;-84
2024/01/13 11:41:21;;;;;;;;;;;-2.70;99.90;;;;;;4906813;29;20375;-85
2024/01/13 11:43:48;;;;;;;;;;;-2.70;99.90;;;;;;4932738;29;20041;-84
2024/01/13 11:46:17;;;;;;;;;;;-2.70;99.90;;;;;;4898470;29;19919;-85
2024/01/13 11:48:43;;;;;;;;;;;-2.70;99.90;;;;;;4927914;29;19922;-84
2024/01/13 11:51:12;;;;;;;;;;;-2.70;99.90;;;;;;4938178;29;19922;-84
2024/01/13 11:53:41;;;;;;;;;;;-2.70;99.90;;;;;;4934463;29;20561;-84
2024/01/13 11:56:07;;;;;;;;;;;-2.70;99.90;;;;;;4900822;29;19922;-84
2024/01/13 11:58:34;;;;;;;;;;;-2.80;99.90;;;;;;4932199;29;19922;-85
2024/01/13 12:01:00;;;;;;;;;;;-2.80;99.90;;;;;;4932307;29;19919;-84
2024/01/13 12:03:25;;;;;;;;;;;-2.80;99.90;;;;;;4931583;29;19926;-84
2024/01/13 12:05:57;;;;;;;;;;;-2.70;99.90;;;;;;4935985;29;19925;-85
2024/01/13 12:08:26;;;;;;;;;;;-2.80;99.90;;;;;;4920712;29;20017;-85
2024/01/13 12:10:53;;;;;;;;;;;-2.80;99.90;;;;;;4921144;29;20680;-85
2024/01/13 12:13:21;;;;;;;;;;;-2.80;99.90;;;;;;4936691;29;20263;-85
2024/01/13 12:15:47;;;;;;;;;;;-2.80;99.90;;;;;;4906702;29;19968;-85
2024/01/13 12:18:32;;;;;;;;;;;-2.80;99.90;;;;;;4904518;29;19966;-85
2024/01/13 12:21:01;;;;;;;;;;;-3.00;99.90;;;;;;4936432;29;19966;-85
2024/01/13 12:23:27;;;;;;;;;;;-3.10;99.90;;;;;;4925504;29;19986;-85
2024/01/13 12:26:08;;;;;;;;;;;-3.00;99.90;;;;;;4935946;29;20021;-85
2024/01/13 12:28:34;;;;;;;;;;;-3.00;99.90;;;;;;4917791;29;19958;-85
2024/01/13 12:31:03;;;;;;;;;;;-3.10;99.90;;;;;;4935936;29;19965;-85
2024/01/13 12:33:29;;;;;;;;;;;-3.10;99.90;;;;;;4904222;29;20363;-85
2024/01/13 12:35:58;;;;;;;;;;;-3.10;99.90;;;;;;4919660;29;19919;-84
2024/01/13 12:38:25;;;;;;;;;;;-3.10;99.90;;;;;;4904324;29;19915;-84
2024/01/13 12:40:52;;;;;;;;;;;-3.00;99.90;;;;;;4924410;29;20379;-84
2024/01/13 12:43:18;;;;;;;;;;;-3.00;99.90;;;;;;4923435;29;19934;-85
2024/01/13 12:45:44;;;;;;;;;;;-3.10;99.90;;;;;;4922783;29;19917;-85
2024/01/13 12:48:10;;;;;;;;;;;-3.10;99.90;;;;;;4935194;29;20001;-85
2024/01/13 12:50:35;;;;;;;;;;;-3.20;99.90;;;;;;4934426;29;19929;-85
2024/01/13 12:53:01;;;;;;;;;;;-3.10;99.90;;;;;;4934958;29;19919;-84
2024/01/13 12:55:26;;;;;;;;;;;-3.10;99.90;;;;;;4934703;29;19937;-85
2024/01/13 12:57:52;;;;;;;;;;;-3.10;99.90;;;;;;4935763;29;19930;-85
2024/01/13 13:00:18;;;;;;;;;;;-3.10;99.90;;;;;;4919507;29;19921;-85
2024/01/13 13:02:44;;;;;;;;;;;-3.10;99.90;;;;;;4921766;29;19981;-85
2024/01/13 13:05:10;;;;;;;;;;;-3.10;99.90;;;;;;4935970;29;19915;-84
2024/01/13 13:07:35;;;;;;;;;;;-3.10;99.90;;;;;;4932490;29;19941;-85
2024/01/13 13:10:01;;;;;;;;;;;-3.10;99.90;;;;;;4920223;29;19919;-84
2024/01/13 13:12:27;;;;;;;;;;;-3.10;99.90;;;;;;4935306;29;19926;-85
2024/01/13 13:14:52;;;;;;;;;;;-3.10;99.90;;;;;;4904563;28;20635;-85
2024/01/13 13:17:18;;;;;;;;;;;-3.10;99.90;;;;;;4932061;29;19975;-85
2024/01/13 13:19:44;;;;;;;;;;;-3.10;99.90;;;;;;4911538;29;20385;-85
2024/01/13 13:22:10;;;;;;;;;;;-3.10;99.90;;;;;;4933276;29;19922;-85
2024/01/13 13:24:36;;;;;;;;;;;-3.10;99.90;;;;;;4922227;29;19922;-84
2024/01/13 13:27:01;;;;;;;;;;;-3.10;99.90;;;;;;4930805;29;20048;-84
2024/01/13 13:29:27;;;;;;;;;;;-3.20;99.90;;;;;;4927062;29;19934;-84
2024/01/13 13:31:56;;;;;;;;;;;-3.20;99.90;;;;;;4902584;29;19923;-85
2024/01/13 13:34:24;;;;;;;;;;;-3.30;99.90;;;;;;4923978;29;19923;-85
2024/01/13 13:36:56;;;;;;;;;;;-3.30;99.90;;;;;;4910806;29;20013;-85
2024/01/13 13:39:25;;;;;;;;;;;-3.30;99.90;;;;;;4938580;29;19930;-85
2024/01/13 13:41:51;;;;;;;;;;;-3.40;99.90;;;;;;4927538;29;19937;-85
2024/01/13 13:44:16;;;;;;;;;;;-3.30;99.90;;;;;;4929470;29;19915;-85
2024/01/13 13:46:42;;;;;;;;;;;-3.40;99.90;;;;;;4914806;29;19915;-84
2024/01/13 13:49:08;;;;;;;;;;;-3.40;99.90;;;;;;4929925;29;20758;-84
2024/01/13 13:51:33;;;;;;;;;;;-3.40;99.90;;;;;;4916337;29;19911;-84
2024/01/13 13:53:59;;;;;;;;;;;-3.40;99.90;;;;;;4938487;29;19962;-85
2024/01/13 13:56:24;;;;;;;;;;;-3.40;99.90;;;;;;4930562;29;20667;-85
2024/01/13 13:58:50;;;;;;;;;;;-3.40;99.90;;;;;;4931731;29;19923;-85
2024/01/13 14:01:41;;;;;;;;;;;-3.50;99.90;;;;;;4938167;28;20427;-85
2024/01/13 14:04:08;;;;;;;;;;;-3.50;99.90;;;;;;4906832;29;20342;-84
2024/01/13 14:06:35;;;;;;;;;;;-3.50;99.90;;;;;;4932641;29;19922;-85
2024/01/13 14:09:01;;;;;;;;;;;-3.60;99.90;;;;;;4930743;29;19919;-85
2024/01/13 14:11:26;;;;;;;;;;;-3.70;99.90;;;;;;4929993;29;19926;-85
2024/01/13 14:13:58;;;;;;;;;;;-3.60;99.90;;;;;;4935839;29;20387;-85
2024/01/13 14:16:23;;;;;;;;;;;-3.60;99.90;;;;;;4944726;29;20306;-86
2024/01/13 14:18:50;;;;;;;;;;;-3.60;99.90;;;;;;4924986;29;19919;-85
2024/01/13 14:21:18;;;;;;;;;;;-3.60;99.90;;;;;;4932880;29;20514;-85
2024/01/13 14:23:59;;;;;;;;;;;-3.60;99.90;;;;;;4917408;29;19946;-85
2024/01/13 14:26:25;;;;;;;;;;;-3.70;99.90;;;;;;4932767;29;20231;-85
2024/01/13 14:28:51;;;;;;;;;;;-3.70;99.90;;;;;;4908360;29;19923;-85